sensor_id;sensor_type;location;lat;lon;timestamp;P1;durP1;ratioP1;P2;durP2;ratioP2
9485;SDS011;4781;48.776;9.200;2023-04-24T00:00:56;1.98;;;0.93;;
9485;SDS011;4781;48.776;9.200;2023-04-24T00:03:23;4.42;;;1.25;;
9485;SDS011;4781;48.776;9.200;2023-04-24T00:05:49;2.25;;;1.05;;
9485;SDS011;4781;48.776;9.200;2023-04-24T00:08:16;4.45;;;1.65;;
9485;SDS011;4781;48.776;9.200;2023-04-24T00:10:43;3.47;;;1.22;;
9485;SDS011;4781;48.776;9.200;2023-04-24T00:13:09;3.60;;;1.10;;
9485;SDS011;4781;48.776;9.200;2023-04-24T00:15:35;3.17;;;0.90;;
9485;SDS011;4781;48.776;9.200;2023-04-24T00:18:01;2.50;;;1.20;;
9485;SDS011;4781;48.776;9.200;2023-04-24T00:20:27;4.42;;;1.22;;
9485;SDS011;4781;48.776;9.200;2023-04-24T00:22:54;3.83;;;1.10;;
9485;SDS011;4781;48.776;9.200;2023-04-24T00:25:21;3.65;;;1.10;;
9485;SDS011;4781;48.776;9.200;2023-04-24T00:27:47;5.83;;;1.50;;
9485;SDS011;4781;48.776;9.200;2023-04-24T00:30:13;3.90;;;1.20;;
9485;SDS011;4781;48.776;9.200;2023-04-24T00:32:39;2.65;;;1.10;;
9485;SDS011;4781;48.776;9.200;2023-04-24T00:35:05;5.20;;;1.30;;
9485;SDS011;4781;48.776;9.200;2023-04-24T00:37:32;3.83;;;1.17;;
9485;SDS011;4781;48.776;9.200;2023-04-24T00:39:57;2.95;;;1.20;;
9485;SDS011;4781;48.776;9.200;2023-04-24T00:42:24;5.50;;;1.50;;
9485;SDS011;4781;48.776;9.200;2023-04-24T00:44:50;2.55;;;0.90;;
9485;SDS011;4781;48.776;9.200;2023-04-24T00:47:17;1.98;;;0.95;;
9485;SDS011;4781;48.776;9.200;2023-04-24T00:49:44;2.47;;;1.00;;
9485;SDS011;4781;48.776;9.200;2023-04-24T00:52:10;3.98;;;1.10;;
9485;SDS011;4781;48.776;9.200;2023-04-24T00:54:37;2.37;;;1.02;;
9485;SDS011;4781;48.776;9.200;2023-04-24T00:57:03;4.87;;;1.25;;
9485;SDS011;4781;48.776;9.200;2023-04-24T00:59:30;3.58;;;1.20;;
9485;SDS011;4781;48.776;9.200;2023-04-24T01:01:57;1.80;;;0.90;;
9485;SDS011;4781;48.776;9.200;2023-04-24T01:04:23;2.77;;;1.22;;
9485;SDS011;4781;48.776;9.200;2023-04-24T01:06:50;1.77;;;0.90;;
9485;SDS011;4781;48.776;9.200;2023-04-24T01:09:16;3.87;;;1.10;;
9485;SDS011;4781;48.776;9.200;2023-04-24T01:11:43;2.67;;;1.02;;
9485;SDS011;4781;48.776;9.200;2023-04-24T01:14:09;2.65;;;1.00;;
9485;SDS011;4781;48.776;9.200;2023-04-24T01:16:35;4.33;;;1.12;;
9485;SDS011;4781;48.776;9.200;2023-04-24T01:19:03;3.17;;;1.00;;
9485;SDS011;4781;48.776;9.200;2023-04-24T01:21:30;3.98;;;1.47;;
9485;SDS011;4781;48.776;9.200;2023-04-24T01:24:02;2.08;;;1.07;;
9485;SDS011;4781;48.776;9.200;2023-04-24T01:26:30;2.33;;;0.80;;
9485;SDS011;4781;48.776;9.200;2023-04-24T01:28:56;4.30;;;1.30;;
9485;SDS011;4781;48.776;9.200;2023-04-24T01:31:22;3.25;;;1.02;;
9485;SDS011;4781;48.776;9.200;2023-04-24T01:33:49;2.80;;;1.00;;
9485;SDS011;4781;48.776;9.200;2023-04-24T01:36:16;2.47;;;0.98;;
9485;SDS011;4781;48.776;9.200;2023-04-24T01:38:42;4.90;;;1.20;;
9485;SDS011;4781;48.776;9.200;2023-04-24T01:41:09;3.62;;;1.15;;
9485;SDS011;4781;48.776;9.200;2023-04-24T01:43:37;3.70;;;1.20;;
9485;SDS011;4781;48.776;9.200;2023-04-24T01:46:03;2.27;;;1.00;;
9485;SDS011;4781;48.776;9.200;2023-04-24T01:48:29;4.05;;;1.20;;
9485;SDS011;4781;48.776;9.200;2023-04-24T01:50:56;1.77;;;1.00;;
9485;SDS011;4781;48.776;9.200;2023-04-24T01:53:22;2.90;;;1.02;;
9485;SDS011;4781;48.776;9.200;2023-04-24T01:55:48;3.65;;;1.20;;
9485;SDS011;4781;48.776;9.200;2023-04-24T01:58:14;3.25;;;1.17;;
9485;SDS011;4781;48.776;9.200;2023-04-24T02:00:40;3.33;;;1.10;;
9485;SDS011;4781;48.776;9.200;2023-04-24T02:03:06;4.40;;;1.55;;
9485;SDS011;4781;48.776;9.200;2023-04-24T02:05:32;3.80;;;1.22;;
9485;SDS011;4781;48.776;9.200;2023-04-24T02:07:58;2.70;;;1.20;;
9485;SDS011;4781;48.776;9.200;2023-04-24T02:10:24;2.70;;;1.20;;
9485;SDS011;4781;48.776;9.200;2023-04-24T02:12:50;3.52;;;0.93;;
9485;SDS011;4781;48.776;9.200;2023-04-24T02:15:16;2.98;;;1.20;;
9485;SDS011;4781;48.776;9.200;2023-04-24T02:17:43;2.70;;;1.12;;
9485;SDS011;4781;48.776;9.200;2023-04-24T02:20:09;4.30;;;1.40;;
9485;SDS011;4781;48.776;9.200;2023-04-24T02:22:58;3.02;;;1.10;;
9485;SDS011;4781;48.776;9.200;2023-04-24T02:25:24;2.35;;;1.05;;
9485;SDS011;4781;48.776;9.200;2023-04-24T02:27:50;2.22;;;1.00;;
9485;SDS011;4781;48.776;9.200;2023-04-24T02:30:16;4.10;;;1.17;;
9485;SDS011;4781;48.776;9.200;2023-04-24T02:32:42;4.17;;;1.22;;
9485;SDS011;4781;48.776;9.200;2023-04-24T02:35:08;2.40;;;1.00;;
9485;SDS011;4781;48.776;9.200;2023-04-24T02:37:34;5.72;;;1.00;;
9485;SDS011;4781;48.776;9.200;2023-04-24T02:40:00;2.45;;;0.95;;
9485;SDS011;4781;48.776;9.200;2023-04-24T02:42:26;2.62;;;1.22;;
9485;SDS011;4781;48.776;9.200;2023-04-24T02:44:52;4.28;;;1.10;;
9485;SDS011;4781;48.776;9.200;2023-04-24T02:47:18;3.08;;;1.32;;
9485;SDS011;4781;48.776;9.200;2023-04-24T02:49:44;2.12;;;1.00;;
9485;SDS011;4781;48.776;9.200;2023-04-24T02:52:10;2.22;;;1.10;;
9485;SDS011;4781;48.776;9.200;2023-04-24T02:54:35;1.62;;;0.80;;
9485;SDS011;4781;48.776;9.200;2023-04-24T02:57:01;3.10;;;1.10;;
9485;SDS011;4781;48.776;9.200;2023-04-24T02:59:28;3.02;;;1.05;;
9485;SDS011;4781;48.776;9.200;2023-04-24T03:01:54;2.85;;;1.20;;
9485;SDS011;4781;48.776;9.200;2023-04-24T03:04:20;4.70;;;1.10;;
9485;SDS011;4781;48.776;9.200;2023-04-24T03:06:46;2.20;;;1.05;;
9485;SDS011;4781;48.776;9.200;2023-04-24T03:09:12;2.45;;;1.00;;
9485;SDS011;4781;48.776;9.200;2023-04-24T03:11:38;3.08;;;1.00;;
9485;SDS011;4781;48.776;9.200;2023-04-24T03:14:04;3.35;;;1.15;;
9485;SDS011;4781;48.776;9.200;2023-04-24T03:16:29;2.72;;;1.00;;
9485;SDS011;4781;48.776;9.200;2023-04-24T03:18:55;2.75;;;1.20;;
9485;SDS011;4781;48.776;9.200;2023-04-24T03:21:22;2.40;;;1.07;;
9485;SDS011;4781;48.776;9.200;2023-04-24T03:23:48;3.02;;;1.40;;
9485;SDS011;4781;48.776;9.200;2023-04-24T03:26:13;3.12;;;1.10;;
9485;SDS011;4781;48.776;9.200;2023-04-24T03:28:39;3.20;;;1.15;;
9485;SDS011;4781;48.776;9.200;2023-04-24T03:31:06;3.70;;;1.15;;
9485;SDS011;4781;48.776;9.200;2023-04-24T03:33:32;5.05;;;1.20;;
9485;SDS011;4781;48.776;9.200;2023-04-24T03:35:57;2.45;;;1.00;;
9485;SDS011;4781;48.776;9.200;2023-04-24T03:38:23;3.10;;;1.10;;
9485;SDS011;4781;48.776;9.200;2023-04-24T03:40:49;3.25;;;1.10;;
9485;SDS011;4781;48.776;9.200;2023-04-24T03:43:15;3.70;;;1.40;;
9485;SDS011;4781;48.776;9.200;2023-04-24T03:45:43;2.65;;;1.15;;
9485;SDS011;4781;48.776;9.200;2023-04-24T03:48:09;2.70;;;1.05;;
9485;SDS011;4781;48.776;9.200;2023-04-24T03:50:35;2.52;;;0.90;;
9485;SDS011;4781;48.776;9.200;2023-04-24T03:53:00;3.02;;;1.20;;
9485;SDS011;4781;48.776;9.200;2023-04-24T03:55:26;2.25;;;0.90;;
9485;SDS011;4781;48.776;9.200;2023-04-24T03:57:52;2.50;;;0.98;;
9485;SDS011;4781;48.776;9.200;2023-04-24T04:00:18;4.17;;;1.10;;
9485;SDS011;4781;48.776;9.200;2023-04-24T04:02:44;2.65;;;1.12;;
9485;SDS011;4781;48.776;9.200;2023-04-24T04:05:10;2.60;;;0.80;;
9485;SDS011;4781;48.776;9.200;2023-04-24T04:07:36;2.05;;;0.90;;
9485;SDS011;4781;48.776;9.200;2023-04-24T04:10:02;1.87;;;0.93;;
9485;SDS011;4781;48.776;9.200;2023-04-24T04:12:29;4.90;;;1.37;;
9485;SDS011;4781;48.776;9.200;2023-04-24T04:14:55;2.08;;;1.00;;
9485;SDS011;4781;48.776;9.200;2023-04-24T04:17:21;2.42;;;1.00;;
9485;SDS011;4781;48.776;9.200;2023-04-24T04:19:47;2.90;;;1.10;;
9485;SDS011;4781;48.776;9.200;2023-04-24T04:22:13;3.65;;;1.05;;
9485;SDS011;4781;48.776;9.200;2023-04-24T04:24:39;3.95;;;1.30;;
9485;SDS011;4781;48.776;9.200;2023-04-24T04:27:06;2.75;;;0.98;;
9485;SDS011;4781;48.776;9.200;2023-04-24T04:29:33;2.27;;;0.88;;
9485;SDS011;4781;48.776;9.200;2023-04-24T04:32:00;3.87;;;1.20;;
9485;SDS011;4781;48.776;9.200;2023-04-24T04:34:26;3.10;;;0.95;;
9485;SDS011;4781;48.776;9.200;2023-04-24T04:36:52;3.30;;;1.25;;
9485;SDS011;4781;48.776;9.200;2023-04-24T04:39:18;2.75;;;1.42;;
9485;SDS011;4781;48.776;9.200;2023-04-24T04:41:45;3.45;;;1.12;;
9485;SDS011;4781;48.776;9.200;2023-04-24T04:44:14;3.75;;;1.20;;
9485;SDS011;4781;48.776;9.200;2023-04-24T04:46:41;2.85;;;1.30;;
9485;SDS011;4781;48.776;9.200;2023-04-24T04:49:07;2.17;;;1.10;;
9485;SDS011;4781;48.776;9.200;2023-04-24T04:51:34;2.52;;;1.30;;
9485;SDS011;4781;48.776;9.200;2023-04-24T04:54:00;3.47;;;1.20;;
9485;SDS011;4781;48.776;9.200;2023-04-24T04:56:26;2.22;;;1.20;;
9485;SDS011;4781;48.776;9.200;2023-04-24T04:58:52;2.65;;;1.47;;
9485;SDS011;4781;48.776;9.200;2023-04-24T05:01:17;3.37;;;1.47;;
9485;SDS011;4781;48.776;9.200;2023-04-24T05:03:43;2.35;;;1.00;;
9485;SDS011;4781;48.776;9.200;2023-04-24T05:06:10;3.80;;;1.42;;
9485;SDS011;4781;48.776;9.200;2023-04-24T05:08:36;2.20;;;1.20;;
9485;SDS011;4781;48.776;9.200;2023-04-24T05:11:02;1.87;;;1.22;;
9485;SDS011;4781;48.776;9.200;2023-04-24T05:13:28;2.72;;;1.30;;
9485;SDS011;4781;48.776;9.200;2023-04-24T05:15:54;2.65;;;1.40;;
9485;SDS011;4781;48.776;9.200;2023-04-24T05:18:19;3.58;;;1.50;;
9485;SDS011;4781;48.776;9.200;2023-04-24T05:20:46;2.65;;;1.30;;
9485;SDS011;4781;48.776;9.200;2023-04-24T05:23:11;3.08;;;1.25;;
9485;SDS011;4781;48.776;9.200;2023-04-24T05:25:37;3.12;;;1.50;;
9485;SDS011;4781;48.776;9.200;2023-04-24T05:28:05;3.52;;;1.50;;
9485;SDS011;4781;48.776;9.200;2023-04-24T05:30:31;3.67;;;1.40;;
9485;SDS011;4781;48.776;9.200;2023-04-24T05:32:56;3.80;;;1.50;;
9485;SDS011;4781;48.776;9.200;2023-04-24T05:35:22;3.92;;;1.40;;
9485;SDS011;4781;48.776;9.200;2023-04-24T05:37:48;5.17;;;1.87;;
9485;SDS011;4781;48.776;9.200;2023-04-24T05:40:14;2.35;;;1.32;;
9485;SDS011;4781;48.776;9.200;2023-04-24T05:42:40;4.28;;;1.40;;
9485;SDS011;4781;48.776;9.200;2023-04-24T05:45:06;3.65;;;1.82;;
9485;SDS011;4781;48.776;9.200;2023-04-24T05:47:35;3.80;;;1.87;;
9485;SDS011;4781;48.776;9.200;2023-04-24T05:50:02;3.45;;;1.50;;
9485;SDS011;4781;48.776;9.200;2023-04-24T05:52:28;3.33;;;1.80;;
9485;SDS011;4781;48.776;9.200;2023-04-24T05:54:54;4.17;;;1.85;;
9485;SDS011;4781;48.776;9.200;2023-04-24T05:57:19;3.60;;;1.72;;
9485;SDS011;4781;48.776;9.200;2023-04-24T05:59:45;2.80;;;1.70;;
9485;SDS011;4781;48.776;9.200;2023-04-24T06:02:11;2.77;;;1.80;;
9485;SDS011;4781;48.776;9.200;2023-04-24T06:04:37;5.50;;;2.10;;
9485;SDS011;4781;48.776;9.200;2023-04-24T06:07:03;3.92;;;1.82;;
9485;SDS011;4781;48.776;9.200;2023-04-24T06:09:29;4.70;;;1.77;;
9485;SDS011;4781;48.776;9.200;2023-04-24T06:11:55;2.60;;;1.60;;
9485;SDS011;4781;48.776;9.200;2023-04-24T06:14:21;3.50;;;1.70;;
9485;SDS011;4781;48.776;9.200;2023-04-24T06:16:47;3.87;;;1.50;;
9485;SDS011;4781;48.776;9.200;2023-04-24T06:19:13;5.45;;;1.95;;
9485;SDS011;4781;48.776;9.200;2023-04-24T06:21:39;3.70;;;1.90;;
9485;SDS011;4781;48.776;9.200;2023-04-24T06:24:05;2.95;;;1.65;;
9485;SDS011;4781;48.776;9.200;2023-04-24T06:26:31;3.35;;;2.00;;
9485;SDS011;4781;48.776;9.200;2023-04-24T06:28:56;4.28;;;1.95;;
9485;SDS011;4781;48.776;9.200;2023-04-24T06:31:24;4.92;;;2.10;;
9485;SDS011;4781;48.776;9.200;2023-04-24T06:33:50;3.62;;;2.00;;
9485;SDS011;4781;48.776;9.200;2023-04-24T06:36:16;4.25;;;2.00;;
9485;SDS011;4781;48.776;9.200;2023-04-24T06:38:42;3.10;;;1.90;;
9485;SDS011;4781;48.776;9.200;2023-04-24T06:41:09;4.30;;;2.10;;
9485;SDS011;4781;48.776;9.200;2023-04-24T06:43:35;3.70;;;2.20;;
9485;SDS011;4781;48.776;9.200;2023-04-24T06:46:01;5.45;;;2.10;;
9485;SDS011;4781;48.776;9.200;2023-04-24T06:48:28;4.70;;;2.27;;
9485;SDS011;4781;48.776;9.200;2023-04-24T06:50:55;6.08;;;2.12;;
9485;SDS011;4781;48.776;9.200;2023-04-24T06:53:20;3.60;;;2.10;;
9485;SDS011;4781;48.776;9.200;2023-04-24T06:55:46;3.95;;;2.30;;
9485;SDS011;4781;48.776;9.200;2023-04-24T06:58:12;4.45;;;2.05;;
9485;SDS011;4781;48.776;9.200;2023-04-24T07:00:39;3.80;;;2.25;;
9485;SDS011;4781;48.776;9.200;2023-04-24T07:03:05;3.83;;;2.27;;
9485;SDS011;4781;48.776;9.200;2023-04-24T07:05:31;4.85;;;2.17;;
9485;SDS011;4781;48.776;9.200;2023-04-24T07:07:59;4.15;;;2.40;;
9485;SDS011;4781;48.776;9.200;2023-04-24T07:10:25;3.42;;;2.15;;
9485;SDS011;4781;48.776;9.200;2023-04-24T07:12:53;3.50;;;2.10;;
9485;SDS011;4781;48.776;9.200;2023-04-24T07:15:19;4.72;;;1.87;;
9485;SDS011;4781;48.776;9.200;2023-04-24T07:17:46;4.22;;;2.20;;
9485;SDS011;4781;48.776;9.200;2023-04-24T07:20:12;3.85;;;1.82;;
9485;SDS011;4781;48.776;9.200;2023-04-24T07:22:39;3.47;;;2.08;;
9485;SDS011;4781;48.776;9.200;2023-04-24T07:25:06;4.45;;;2.02;;
9485;SDS011;4781;48.776;9.200;2023-04-24T07:27:33;3.62;;;1.87;;
9485;SDS011;4781;48.776;9.200;2023-04-24T07:30:00;4.92;;;1.90;;
9485;SDS011;4781;48.776;9.200;2023-04-24T07:32:26;4.70;;;2.20;;
9485;SDS011;4781;48.776;9.200;2023-04-24T07:34:52;4.33;;;1.85;;
9485;SDS011;4781;48.776;9.200;2023-04-24T07:37:17;3.55;;;1.77;;
9485;SDS011;4781;48.776;9.200;2023-04-24T07:39:44;4.55;;;1.85;;
9485;SDS011;4781;48.776;9.200;2023-04-24T07:42:10;4.80;;;1.82;;
9485;SDS011;4781;48.776;9.200;2023-04-24T07:44:36;3.47;;;1.62;;
9485;SDS011;4781;48.776;9.200;2023-04-24T07:47:01;3.02;;;1.57;;
9485;SDS011;4781;48.776;9.200;2023-04-24T07:49:28;4.72;;;1.60;;
9485;SDS011;4781;48.776;9.200;2023-04-24T07:51:54;5.78;;;1.70;;
9485;SDS011;4781;48.776;9.200;2023-04-24T07:54:20;2.92;;;1.55;;
9485;SDS011;4781;48.776;9.200;2023-04-24T07:56:46;10.28;;;2.58;;
9485;SDS011;4781;48.776;9.200;2023-04-24T07:59:13;2.77;;;1.67;;
9485;SDS011;4781;48.776;9.200;2023-04-24T08:01:39;3.17;;;1.50;;
9485;SDS011;4781;48.776;9.200;2023-04-24T08:04:05;3.55;;;1.70;;
9485;SDS011;4781;48.776;9.200;2023-04-24T08:06:32;3.90;;;1.70;;
9485;SDS011;4781;48.776;9.200;2023-04-24T08:08:58;5.50;;;1.62;;
9485;SDS011;4781;48.776;9.200;2023-04-24T08:11:24;2.98;;;1.70;;
9485;SDS011;4781;48.776;9.200;2023-04-24T08:13:51;3.85;;;1.70;;
9485;SDS011;4781;48.776;9.200;2023-04-24T08:16:17;3.87;;;1.90;;
9485;SDS011;4781;48.776;9.200;2023-04-24T08:18:45;3.02;;;1.50;;
9485;SDS011;4781;48.776;9.200;2023-04-24T08:21:11;2.70;;;1.50;;
9485;SDS011;4781;48.776;9.200;2023-04-24T08:23:38;2.83;;;1.50;;
9485;SDS011;4781;48.776;9.200;2023-04-24T08:26:04;3.52;;;1.47;;
9485;SDS011;4781;48.776;9.200;2023-04-24T08:28:30;2.92;;;1.50;;
9485;SDS011;4781;48.776;9.200;2023-04-24T08:31:02;3.90;;;1.75;;
9485;SDS011;4781;48.776;9.200;2023-04-24T08:33:25;4.95;;;1.60;;
9485;SDS011;4781;48.776;9.200;2023-04-24T08:35:52;3.95;;;1.50;;
9485;SDS011;4781;48.776;9.200;2023-04-24T08:38:18;3.80;;;1.60;;
9485;SDS011;4781;48.776;9.200;2023-04-24T08:40:44;3.42;;;1.70;;
9485;SDS011;4781;48.776;9.200;2023-04-24T08:43:11;3.42;;;1.50;;
9485;SDS011;4781;48.776;9.200;2023-04-24T08:45:39;3.47;;;1.62;;
9485;SDS011;4781;48.776;9.200;2023-04-24T08:48:05;5.42;;;1.72;;
9485;SDS011;4781;48.776;9.200;2023-04-24T08:50:32;3.00;;;1.62;;
9485;SDS011;4781;48.776;9.200;2023-04-24T08:53:00;5.00;;;1.67;;
9485;SDS011;4781;48.776;9.200;2023-04-24T08:55:26;4.08;;;1.72;;
9485;SDS011;4781;48.776;9.200;2023-04-24T08:57:56;2.33;;;1.37;;
9485;SDS011;4781;48.776;9.200;2023-04-24T09:00:22;5.53;;;1.50;;
9485;SDS011;4781;48.776;9.200;2023-04-24T09:02:49;3.60;;;1.47;;
9485;SDS011;4781;48.776;9.200;2023-04-24T09:05:36;4.65;;;2.10;;
9485;SDS011;4781;48.776;9.200;2023-04-24T09:08:02;3.62;;;1.50;;
9485;SDS011;4781;48.776;9.200;2023-04-24T09:10:30;7.85;;;1.75;;
9485;SDS011;4781;48.776;9.200;2023-04-24T09:12:57;3.85;;;1.85;;
9485;SDS011;4781;48.776;9.200;2023-04-24T09:15:26;4.15;;;1.55;;
9485;SDS011;4781;48.776;9.200;2023-04-24T09:17:53;3.62;;;1.95;;
9485;SDS011;4781;48.776;9.200;2023-04-24T09:20:19;3.98;;;1.80;;
9485;SDS011;4781;48.776;9.200;2023-04-24T09:22:45;5.67;;;2.00;;
9485;SDS011;4781;48.776;9.200;2023-04-24T09:25:11;4.33;;;1.65;;
9485;SDS011;4781;48.776;9.200;2023-04-24T09:27:41;3.10;;;1.52;;
9485;SDS011;4781;48.776;9.200;2023-04-24T09:30:11;3.00;;;1.55;;
9485;SDS011;4781;48.776;9.200;2023-04-24T09:32:38;3.25;;;1.50;;
9485;SDS011;4781;48.776;9.200;2023-04-24T09:35:11;3.75;;;1.95;;
9485;SDS011;4781;48.776;9.200;2023-04-24T09:37:42;3.87;;;1.87;;
9485;SDS011;4781;48.776;9.200;2023-04-24T09:40:19;4.22;;;2.22;;
9485;SDS011;4781;48.776;9.200;2023-04-24T09:42:54;6.85;;;2.05;;
9485;SDS011;4781;48.776;9.200;2023-04-24T09:45:27;4.97;;;2.25;;
9485;SDS011;4781;48.776;9.200;2023-04-24T09:48:02;4.03;;;1.90;;
9485;SDS011;4781;48.776;9.200;2023-04-24T09:50:30;4.00;;;1.80;;
9485;SDS011;4781;48.776;9.200;2023-04-24T09:53:02;6.92;;;1.80;;
9485;SDS011;4781;48.776;9.200;2023-04-24T09:55:30;3.30;;;1.60;;
9485;SDS011;4781;48.776;9.200;2023-04-24T09:57:57;4.42;;;1.85;;
9485;SDS011;4781;48.776;9.200;2023-04-24T10:00:29;2.80;;;1.47;;
9485;SDS011;4781;48.776;9.200;2023-04-24T10:02:58;3.30;;;1.70;;
9485;SDS011;4781;48.776;9.200;2023-04-24T10:05:30;4.62;;;1.80;;
9485;SDS011;4781;48.776;9.200;2023-04-24T10:08:02;3.02;;;1.32;;
9485;SDS011;4781;48.776;9.200;2023-04-24T10:10:35;7.92;;;2.40;;
9485;SDS011;4781;48.776;9.200;2023-04-24T10:13:07;4.03;;;1.32;;
9485;SDS011;4781;48.776;9.200;2023-04-24T10:15:35;6.95;;;1.80;;
9485;SDS011;4781;48.776;9.200;2023-04-24T10:18:03;3.72;;;1.62;;
9485;SDS011;4781;48.776;9.200;2023-04-24T10:20:32;2.58;;;1.47;;
9485;SDS011;4781;48.776;9.200;2023-04-24T10:22:59;2.52;;;1.35;;
9485;SDS011;4781;48.776;9.200;2023-04-24T10:25:27;4.25;;;1.40;;
9485;SDS011;4781;48.776;9.200;2023-04-24T10:27:58;4.42;;;1.70;;
9485;SDS011;4781;48.776;9.200;2023-04-24T10:30:26;3.55;;;1.60;;
9485;SDS011;4781;48.776;9.200;2023-04-24T10:32:56;4.00;;;1.52;;
9485;SDS011;4781;48.776;9.200;2023-04-24T10:35:22;2.55;;;1.42;;
9485;SDS011;4781;48.776;9.200;2023-04-24T10:38:01;2.12;;;1.30;;
9485;SDS011;4781;48.776;9.200;2023-04-24T10:40:31;3.40;;;1.60;;
9485;SDS011;4781;48.776;9.200;2023-04-24T10:43:02;3.33;;;1.65;;
9485;SDS011;4781;48.776;9.200;2023-04-24T10:45:30;3.30;;;1.50;;
9485;SDS011;4781;48.776;9.200;2023-04-24T10:47:57;3.22;;;1.57;;
9485;SDS011;4781;48.776;9.200;2023-04-24T10:50:56;3.42;;;1.47;;
9485;SDS011;4781;48.776;9.200;2023-04-24T10:53:16;3.15;;;1.50;;
9485;SDS011;4781;48.776;9.200;2023-04-24T10:55:51;2.90;;;1.25;;
9485;SDS011;4781;48.776;9.200;2023-04-24T10:58:43;4.87;;;1.30;;
9485;SDS011;4781;48.776;9.200;2023-04-24T11:04:00;3.87;;;1.32;;
9485;SDS011;4781;48.776;9.200;2023-04-24T11:06:31;3.15;;;1.60;;
9485;SDS011;4781;48.776;9.200;2023-04-24T11:09:03;3.27;;;1.57;;
9485;SDS011;4781;48.776;9.200;2023-04-24T11:11:33;4.75;;;1.57;;
9485;SDS011;4781;48.776;9.200;2023-04-24T11:14:01;2.20;;;1.17;;
9485;SDS011;4781;48.776;9.200;2023-04-24T11:19:21;2.92;;;1.32;;
9485;SDS011;4781;48.776;9.200;2023-04-24T11:27:14;3.55;;;1.32;;
9485;SDS011;4781;48.776;9.200;2023-04-24T11:32:24;2.65;;;1.30;;
9485;SDS011;4781;48.776;9.200;2023-04-24T11:34:56;4.30;;;1.30;;
9485;SDS011;4781;48.776;9.200;2023-04-24T11:37:29;2.58;;;1.50;;
9485;SDS011;4781;48.776;9.200;2023-04-24T11:40:05;4.37;;;1.50;;
9485;SDS011;4781;48.776;9.200;2023-04-24T11:42:34;4.25;;;1.50;;
9485;SDS011;4781;48.776;9.200;2023-04-24T11:45:07;3.50;;;1.75;;
9485;SDS011;4781;48.776;9.200;2023-04-24T11:47:35;4.20;;;1.60;;
9485;SDS011;4781;48.776;9.200;2023-04-24T11:50:01;6.30;;;1.65;;
9485;SDS011;4781;48.776;9.200;2023-04-24T11:52:29;3.85;;;1.80;;
9485;SDS011;4781;48.776;9.200;2023-04-24T11:54:55;3.50;;;1.50;;
9485;SDS011;4781;48.776;9.200;2023-04-24T11:57:24;3.45;;;1.47;;
9485;SDS011;4781;48.776;9.200;2023-04-24T11:59:52;2.80;;;1.42;;
9485;SDS011;4781;48.776;9.200;2023-04-24T12:02:22;3.40;;;1.47;;
9485;SDS011;4781;48.776;9.200;2023-04-24T12:04:55;3.22;;;1.35;;
9485;SDS011;4781;48.776;9.200;2023-04-24T12:07:21;3.15;;;1.30;;
9485;SDS011;4781;48.776;9.200;2023-04-24T12:09:57;3.02;;;1.50;;
9485;SDS011;4781;48.776;9.200;2023-04-24T12:12:25;2.92;;;1.50;;
9485;SDS011;4781;48.776;9.200;2023-04-24T12:14:53;2.30;;;1.40;;
9485;SDS011;4781;48.776;9.200;2023-04-24T12:17:26;4.00;;;1.47;;
9485;SDS011;4781;48.776;9.200;2023-04-24T12:19:58;2.15;;;1.10;;
9485;SDS011;4781;48.776;9.200;2023-04-24T12:22:46;2.67;;;1.20;;
9485;SDS011;4781;48.776;9.200;2023-04-24T12:25:21;2.77;;;1.50;;
9485;SDS011;4781;48.776;9.200;2023-04-24T12:30:42;3.95;;;1.80;;
9485;SDS011;4781;48.776;9.200;2023-04-24T12:35:45;3.85;;;1.65;;
9485;SDS011;4781;48.776;9.200;2023-04-24T12:38:13;4.95;;;1.40;;
9485;SDS011;4781;48.776;9.200;2023-04-24T12:40:44;2.58;;;1.32;;
9485;SDS011;4781;48.776;9.200;2023-04-24T12:43:17;7.60;;;1.40;;
9485;SDS011;4781;48.776;9.200;2023-04-24T12:45:45;3.22;;;1.50;;
9485;SDS011;4781;48.776;9.200;2023-04-24T12:48:13;3.42;;;1.57;;
9485;SDS011;4781;48.776;9.200;2023-04-24T12:50:42;2.25;;;1.20;;
9485;SDS011;4781;48.776;9.200;2023-04-24T12:53:09;4.65;;;1.50;;
9485;SDS011;4781;48.776;9.200;2023-04-24T12:55:35;2.95;;;1.50;;
9485;SDS011;4781;48.776;9.200;2023-04-24T12:58:03;3.52;;;1.55;;
9485;SDS011;4781;48.776;9.200;2023-04-24T13:00:29;3.15;;;1.75;;
9485;SDS011;4781;48.776;9.200;2023-04-24T13:02:55;6.67;;;1.85;;
9485;SDS011;4781;48.776;9.200;2023-04-24T13:05:21;2.58;;;1.40;;
9485;SDS011;4781;48.776;9.200;2023-04-24T13:07:47;3.40;;;1.45;;
9485;SDS011;4781;48.776;9.200;2023-04-24T13:10:13;2.25;;;1.10;;
9485;SDS011;4781;48.776;9.200;2023-04-24T13:12:39;5.55;;;1.67;;
9485;SDS011;4781;48.776;9.200;2023-04-24T13:15:06;3.30;;;1.30;;
9485;SDS011;4781;48.776;9.200;2023-04-24T13:17:33;2.45;;;1.30;;
9485;SDS011;4781;48.776;9.200;2023-04-24T13:19:59;3.27;;;1.37;;
9485;SDS011;4781;48.776;9.200;2023-04-24T13:22:25;3.27;;;1.42;;
9485;SDS011;4781;48.776;9.200;2023-04-24T13:24:51;2.52;;;1.40;;
9485;SDS011;4781;48.776;9.200;2023-04-24T13:27:20;2.85;;;1.40;;
9485;SDS011;4781;48.776;9.200;2023-04-24T13:29:45;2.95;;;1.50;;
9485;SDS011;4781;48.776;9.200;2023-04-24T13:32:11;4.17;;;1.50;;
9485;SDS011;4781;48.776;9.200;2023-04-24T13:34:37;4.35;;;1.62;;
9485;SDS011;4781;48.776;9.200;2023-04-24T13:37:03;2.95;;;1.50;;
9485;SDS011;4781;48.776;9.200;2023-04-24T13:39:30;4.00;;;1.50;;
9485;SDS011;4781;48.776;9.200;2023-04-24T13:41:56;2.42;;;1.50;;
9485;SDS011;4781;48.776;9.200;2023-04-24T13:44:23;4.72;;;2.00;;
9485;SDS011;4781;48.776;9.200;2023-04-24T13:46:51;3.00;;;1.65;;
9485;SDS011;4781;48.776;9.200;2023-04-24T13:49:22;3.42;;;1.52;;
9485;SDS011;4781;48.776;9.200;2023-04-24T13:51:50;2.90;;;1.57;;
9485;SDS011;4781;48.776;9.200;2023-04-24T13:54:18;4.78;;;1.62;;
9485;SDS011;4781;48.776;9.200;2023-04-24T13:56:44;4.15;;;1.67;;
9485;SDS011;4781;48.776;9.200;2023-04-24T13:59:11;2.80;;;1.40;;
9485;SDS011;4781;48.776;9.200;2023-04-24T14:01:38;3.50;;;1.90;;
9485;SDS011;4781;48.776;9.200;2023-04-24T14:04:04;3.22;;;1.70;;
9485;SDS011;4781;48.776;9.200;2023-04-24T14:06:30;2.70;;;1.42;;
9485;SDS011;4781;48.776;9.200;2023-04-24T14:08:56;2.25;;;1.50;;
9485;SDS011;4781;48.776;9.200;2023-04-24T14:11:22;2.77;;;1.40;;
9485;SDS011;4781;48.776;9.200;2023-04-24T14:13:48;3.08;;;1.65;;
9485;SDS011;4781;48.776;9.200;2023-04-24T14:16:15;3.25;;;1.50;;
9485;SDS011;4781;48.776;9.200;2023-04-24T14:18:44;3.92;;;1.80;;
9485;SDS011;4781;48.776;9.200;2023-04-24T14:21:09;3.65;;;1.95;;
9485;SDS011;4781;48.776;9.200;2023-04-24T14:23:35;4.25;;;1.90;;
9485;SDS011;4781;48.776;9.200;2023-04-24T14:26:01;2.62;;;1.50;;
9485;SDS011;4781;48.776;9.200;2023-04-24T14:28:27;3.35;;;1.67;;
9485;SDS011;4781;48.776;9.200;2023-04-24T14:30:53;2.42;;;1.52;;
9485;SDS011;4781;48.776;9.200;2023-04-24T14:33:20;3.08;;;1.50;;
9485;SDS011;4781;48.776;9.200;2023-04-24T14:35:46;3.12;;;1.35;;
9485;SDS011;4781;48.776;9.200;2023-04-24T14:38:15;2.95;;;1.40;;
9485;SDS011;4781;48.776;9.200;2023-04-24T14:40:41;2.65;;;1.35;;
9485;SDS011;4781;48.776;9.200;2023-04-24T14:43:08;3.12;;;1.42;;
9485;SDS011;4781;48.776;9.200;2023-04-24T14:45:34;4.40;;;1.30;;
9485;SDS011;4781;48.776;9.200;2023-04-24T14:48:03;3.98;;;1.50;;
9485;SDS011;4781;48.776;9.200;2023-04-24T14:50:29;5.37;;;1.70;;
9485;SDS011;4781;48.776;9.200;2023-04-24T14:52:55;3.15;;;1.45;;
9485;SDS011;4781;48.776;9.200;2023-04-24T14:55:24;3.10;;;1.57;;
9485;SDS011;4781;48.776;9.200;2023-04-24T14:57:51;2.92;;;1.77;;
9485;SDS011;4781;48.776;9.200;2023-04-24T15:00:19;3.80;;;1.75;;
9485;SDS011;4781;48.776;9.200;2023-04-24T15:02:48;3.70;;;1.90;;
9485;SDS011;4781;48.776;9.200;2023-04-24T15:05:14;3.98;;;1.70;;
9485;SDS011;4781;48.776;9.200;2023-04-24T15:07:40;3.52;;;1.80;;
9485;SDS011;4781;48.776;9.200;2023-04-24T15:10:08;3.47;;;2.02;;
9485;SDS011;4781;48.776;9.200;2023-04-24T15:12:35;3.55;;;2.08;;
9485;SDS011;4781;48.776;9.200;2023-04-24T15:15:02;3.62;;;2.17;;
9485;SDS011;4781;48.776;9.200;2023-04-24T15:17:28;3.87;;;1.77;;
9485;SDS011;4781;48.776;9.200;2023-04-24T15:19:54;3.62;;;2.02;;
9485;SDS011;4781;48.776;9.200;2023-04-24T15:22:23;4.30;;;1.82;;
9485;SDS011;4781;48.776;9.200;2023-04-24T15:24:49;3.92;;;1.75;;
9485;SDS011;4781;48.776;9.200;2023-04-24T15:27:15;3.98;;;2.00;;
9485;SDS011;4781;48.776;9.200;2023-04-24T15:29:41;4.47;;;1.90;;
9485;SDS011;4781;48.776;9.200;2023-04-24T15:32:07;3.47;;;1.98;;
9485;SDS011;4781;48.776;9.200;2023-04-24T15:34:33;3.60;;;1.87;;